createdAt,value
2023-01-20T00:01:15.782Z,-0.80
2023-01-20T00:03:42.890Z,-0.80
2023-01-20T00:06:09.979Z,-0.80
2023-01-20T00:08:36.686Z,-0.70
2023-01-20T00:11:09.417Z,-0.70
2023-01-20T00:13:37.039Z,-0.70
2023-01-20T00:16:08.245Z,-0.70
2023-01-20T00:18:35.700Z,-0.70
2023-01-20T00:21:10.743Z,-0.70
2023-01-20T00:23:37.468Z,-0.70
2023-01-20T00:26:05.869Z,-0.70
2023-01-20T00:28:32.827Z,-0.70
2023-01-20T00:31:09.243Z,-0.80
2023-01-20T00:33:35.800Z,-0.80
2023-01-20T00:36:02.520Z,-0.80
2023-01-20T00:38:29.082Z,-0.80
2023-01-20T00:40:56.247Z,-0.90
2023-01-20T00:43:23.147Z,-0.80
2023-01-20T00:45:49.768Z,-0.80
2023-01-20T00:48:16.401Z,-0.80
2023-01-20T00:50:43.338Z,-0.90
2023-01-20T00:53:09.882Z,-0.90
2023-01-20T00:55:36.423Z,-0.90
2023-01-20T00:58:03.019Z,-0.90
2023-01-20T01:00:29.709Z,-0.90
2023-01-20T01:02:56.413Z,-0.90
2023-01-20T01:05:23.339Z,-0.90
2023-01-20T01:07:49.887Z,-0.80
2023-01-20T01:10:16.848Z,-0.80
2023-01-20T01:12:43.427Z,-0.80
2023-01-20T01:15:10.431Z,-0.70
2023-01-20T01:17:37.013Z,-0.60
2023-01-20T01:20:04.365Z,-0.60
2023-01-20T01:22:33.040Z,-0.60
2023-01-20T01:24:59.612Z,-0.60
2023-01-20T01:27:28.513Z,-0.60
2023-01-20T01:29:55.702Z,-0.60
2023-01-20T01:32:23.172Z,-0.60
2023-01-20T01:34:49.844Z,-0.60
2023-01-20T01:37:16.464Z,-0.50
2023-01-20T01:39:43.029Z,-0.50
2023-01-20T01:42:15.555Z,-0.40
2023-01-20T01:45:10.303Z,-0.40
2023-01-20T01:47:38.719Z,-0.40
2023-01-20T01:50:06.540Z,-0.40
2023-01-20T01:52:33.645Z,-0.40
2023-01-20T01:55:00.731Z,-0.40
2023-01-20T01:57:29.878Z,-0.30
2023-01-20T01:59:56.564Z,-0.30
2023-01-20T02:02:24.198Z,-0.30
2023-01-20T02:04:51.112Z,-0.30
2023-01-20T02:07:20.716Z,-0.30
2023-01-20T02:09:47.371Z,-0.20
2023-01-20T02:12:17.343Z,-0.20
2023-01-20T02:14:48.799Z,-0.20
2023-01-20T02:17:31.229Z,-0.30
2023-01-20T02:20:34.690Z,-0.20
2023-01-20T02:23:16.285Z,-0.20
2023-01-20T02:26:09.077Z,-0.20
2023-01-20T02:29:07.177Z,-0.20
2023-01-20T02:31:58.743Z,-0.20
2023-01-20T02:34:52.572Z,-0.20
2023-01-20T02:37:25.044Z,-0.10
2023-01-20T02:40:11.515Z,-0.10
2023-01-20T02:42:53.007Z,-0.10
2023-01-20T02:45:29.059Z,-0.10
2023-01-20T02:48:12.569Z,-0.10
2023-01-20T02:50:52.269Z,-0.10
2023-01-20T02:53:20.248Z,-0.20
2023-01-20T02:55:49.282Z,-0.20
2023-01-20T02:58:40.577Z,-0.20
2023-01-20T03:01:36.139Z,-0.20
2023-01-20T03:04:04.978Z,-0.20
2023-01-20T03:06:38.633Z,-0.30
2023-01-20T03:09:10.223Z,-0.30
2023-01-20T03:11:42.333Z,-0.40
2023-01-20T03:14:12.811Z,-0.40
2023-01-20T03:16:40.816Z,-0.40
2023-01-20T03:19:07.587Z,-0.40
2023-01-20T03:21:34.866Z,-0.40
2023-01-20T03:24:03.981Z,-0.50
2023-01-20T03:26:30.986Z,-0.40
2023-01-20T03:28:58.027Z,-0.40
2023-01-20T03:31:34.105Z,-0.50
2023-01-20T03:34:03.545Z,-0.50
2023-01-20T03:36:31.728Z,-0.50
2023-01-20T03:38:59.173Z,-0.50
2023-01-20T03:41:39.607Z,-0.50
2023-01-20T03:44:48.803Z,-0.50
2023-01-20T03:47:24.046Z,-0.50
2023-01-20T03:50:18.464Z,-0.60
2023-01-20T03:52:55.527Z,-0.50
2023-01-20T03:55:28.752Z,-0.50
2023-01-20T03:58:08.783Z,-0.60
2023-01-20T04:00:39.468Z,-0.60
2023-01-20T04:03:13.256Z,-0.60
2023-01-20T04:05:41.369Z,-0.60
2023-01-20T04:08:09.909Z,-0.60
2023-01-20T04:10:40.283Z,-0.70
2023-01-20T04:13:06.996Z,-0.70
2023-01-20T04:15:39.725Z,-0.70
2023-01-20T04:18:22.693Z,-0.70
2023-01-20T04:21:03.523Z,-0.80
2023-01-20T04:23:39.228Z,-0.80
2023-01-20T04:26:05.941Z,-0.90
2023-01-20T04:28:32.532Z,-1.00
2023-01-20T04:30:59.311Z,-1.00
2023-01-20T04:33:25.925Z,-1.10
2023-01-20T04:35:52.625Z,-1.10
2023-01-20T04:38:19.200Z,-1.10
2023-01-20T04:40:45.759Z,-1.10
2023-01-20T04:43:12.556Z,-1.00
2023-01-20T04:45:41.458Z,-1.00
2023-01-20T04:48:09.035Z,-1.00
2023-01-20T04:50:39.831Z,-1.00
2023-01-20T04:53:06.779Z,-1.10
2023-01-20T04:55:34.117Z,-1.00
2023-01-20T04:58:00.681Z,-1.10
2023-01-20T05:00:27.446Z,-1.00
2023-01-20T05:02:57.890Z,-1.00
2023-01-20T05:05:25.019Z,-1.00
2023-01-20T05:07:56.964Z,-1.00
2023-01-20T05:10:23.608Z,-1.00
2023-01-20T05:12:50.175Z,-0.90
2023-01-20T05:15:17.045Z,-1.00
2023-01-20T05:17:43.720Z,-1.00
2023-01-20T05:20:11.092Z,-1.00
2023-01-20T05:22:37.800Z,-1.10
2023-01-20T05:25:04.806Z,-1.00
2023-01-20T05:27:31.413Z,-1.00
2023-01-20T05:29:57.980Z,-0.90
2023-01-20T05:32:24.548Z,-0.90
2023-01-20T05:34:51.153Z,-1.00
2023-01-20T05:37:18.489Z,-0.90
2023-01-20T05:39:45.114Z,-0.90
2023-01-20T05:42:11.763Z,-0.90
2023-01-20T05:44:38.359Z,-1.00
2023-01-20T05:47:05.016Z,-0.90
2023-01-20T05:49:31.634Z,-1.00
2023-01-20T05:51:58.224Z,-1.00
2023-01-20T05:54:26.080Z,-1.00
2023-01-20T05:56:52.718Z,-1.00
2023-01-20T05:59:19.289Z,-1.00
2023-01-20T06:01:45.875Z,-0.90
2023-01-20T06:04:12.443Z,-0.90
2023-01-20T06:06:39.187Z,-0.90
2023-01-20T06:09:06.609Z,-0.90
2023-01-20T06:11:33.319Z,-0.90
2023-01-20T06:13:59.852Z,-0.90
2023-01-20T06:16:26.506Z,-1.00
2023-01-20T06:18:53.227Z,-1.00
2023-01-20T06:21:19.817Z,-1.10
2023-01-20T06:23:46.489Z,-1.20
2023-01-20T06:26:14.047Z,-1.30
2023-01-20T06:28:41.234Z,-1.40
2023-01-20T06:31:14.368Z,-1.50
2023-01-20T06:33:41.506Z,-1.60
2023-01-20T06:36:11.018Z,-1.70
2023-01-20T06:38:37.592Z,-1.80
2023-01-20T06:41:07.024Z,-1.90
2023-01-20T06:43:35.009Z,-1.90
2023-01-20T06:46:03.134Z,-1.90
2023-01-20T06:48:30.144Z,-1.90
2023-01-20T06:51:09.377Z,-1.90
2023-01-20T06:53:35.968Z,-1.90
2023-01-20T06:56:03.247Z,-1.80
2023-01-20T06:58:31.362Z,-1.80
2023-01-20T07:00:59.049Z,-1.70
2023-01-20T07:03:25.707Z,-1.70
2023-01-20T07:06:02.600Z,-1.60
2023-01-20T07:08:29.291Z,-1.50
2023-01-20T07:10:56.284Z,-1.40
2023-01-20T07:13:22.894Z,-1.30
2023-01-20T07:15:49.552Z,-1.30
2023-01-20T07:18:16.106Z,-1.30
2023-01-20T07:20:43.743Z,-1.30
2023-01-20T07:23:10.376Z,-1.30
2023-01-20T07:25:37.995Z,-1.30
2023-01-20T07:28:05.035Z,-1.20
2023-01-20T07:30:31.630Z,-1.20
2023-01-20T07:32:59.270Z,-1.20
2023-01-20T07:35:25.836Z,-1.10
2023-01-20T07:37:52.436Z,-1.10
2023-01-20T07:40:19.070Z,-1.10
2023-01-20T07:42:45.608Z,-1.00
2023-01-20T07:45:12.392Z,-1.00
2023-01-20T07:47:39.076Z,-1.00
2023-01-20T07:50:06.048Z,-0.90
2023-01-20T07:52:32.609Z,-0.90
2023-01-20T07:54:59.163Z,-0.80
2023-01-20T07:57:25.752Z,-0.70
2023-01-20T07:59:52.319Z,-0.60
2023-01-20T08:02:18.853Z,-0.60
2023-01-20T08:04:45.433Z,-0.60
2023-01-20T08:07:11.995Z,-0.50
2023-01-20T08:09:40.751Z,-0.50
2023-01-20T08:12:07.516Z,-0.50
2023-01-20T08:14:36.324Z,-0.50
2023-01-20T08:17:04.160Z,-0.40
2023-01-20T08:19:30.706Z,-0.40
2023-01-20T08:21:57.353Z,-0.40
2023-01-20T08:24:23.892Z,-0.40
2023-01-20T08:26:51.363Z,-0.30
2023-01-20T08:29:17.982Z,-0.40
2023-01-20T08:31:44.736Z,-0.40
2023-01-20T08:34:12.218Z,-0.40
2023-01-20T08:36:40.925Z,-0.50
2023-01-20T08:39:10.257Z,-0.60
2023-01-20T08:41:39.504Z,-0.60
2023-01-20T08:44:07.589Z,-0.70
2023-01-20T08:46:35.124Z,-0.80
2023-01-20T08:49:01.825Z,-0.80
2023-01-20T08:51:31.074Z,-0.90
2023-01-20T08:53:58.224Z,-0.90
2023-01-20T08:56:25.138Z,-1.00
2023-01-20T08:58:52.013Z,-1.00
2023-01-20T09:01:21.252Z,-1.10
2023-01-20T09:04:03.868Z,-1.10
2023-01-20T09:06:45.902Z,-1.10
2023-01-20T09:09:14.256Z,-0.90
2023-01-20T09:11:41.115Z,-0.90
2023-01-20T09:14:07.719Z,-0.80
2023-01-20T09:16:34.298Z,-0.60
2023-01-20T09:19:00.883Z,-0.50
2023-01-20T09:21:27.490Z,-0.40
2023-01-20T09:23:54.220Z,-0.40
2023-01-20T09:26:34.920Z,-0.20
2023-01-20T09:29:08.861Z,-0.10
2023-01-20T09:31:40.750Z,0.00
2023-01-20T09:34:07.493Z,0.10
2023-01-20T09:36:34.133Z,0.20
2023-01-20T09:39:19.666Z,0.40
2023-01-20T09:42:08.409Z,0.50
2023-01-20T09:44:40.695Z,1.00
2023-01-20T09:47:26.030Z,1.30
2023-01-20T09:50:37.225Z,1.20
2023-01-20T09:53:15.315Z,1.10
2023-01-20T09:55:51.143Z,1.10
2023-01-20T09:58:34.997Z,1.10
2023-01-20T10:01:38.486Z,1.10
2023-01-20T10:04:17.305Z,1.10
2023-01-20T10:06:48.458Z,1.30
2023-01-20T10:09:28.929Z,1.30
2023-01-20T10:12:18.484Z,1.40
2023-01-20T10:14:55.547Z,1.40
2023-01-20T10:17:25.239Z,1.40
2023-01-20T10:20:12.776Z,1.50
2023-01-20T10:22:51.580Z,1.70
2023-01-20T10:25:23.770Z,1.80
2023-01-20T10:27:55.273Z,2.00
2023-01-20T10:30:29.460Z,1.90
2023-01-20T10:33:02.539Z,2.00
2023-01-20T10:35:33.330Z,2.10
2023-01-20T10:38:00.125Z,2.10
2023-01-20T10:40:36.562Z,2.10
2023-01-20T10:43:12.879Z,2.10
2023-01-20T10:46:04.157Z,2.00
2023-01-20T10:49:01.793Z,2.00
2023-01-20T10:51:28.321Z,2.10
2023-01-20T10:54:03.088Z,2.20
2023-01-20T10:56:45.083Z,2.40
2023-01-20T10:59:44.090Z,2.40
2023-01-20T11:02:35.039Z,2.50
2023-01-20T11:05:03.575Z,2.50
2023-01-20T11:07:32.808Z,2.60
2023-01-20T11:10:13.515Z,2.50
2023-01-20T11:12:42.175Z,2.60
2023-01-20T11:15:41.267Z,2.60
2023-01-20T11:18:14.014Z,2.50
2023-01-20T11:20:49.762Z,2.60
2023-01-20T11:23:19.263Z,2.20
2023-01-20T11:25:57.929Z,2.20
2023-01-20T11:28:25.276Z,2.30
2023-01-20T11:30:54.170Z,2.50
2023-01-20T11:33:27.046Z,2.60
2023-01-20T11:36:21.157Z,2.90
2023-01-20T11:38:49.732Z,2.60
2023-01-20T11:41:20.115Z,2.80
2023-01-20T11:43:48.016Z,2.90
2023-01-20T11:46:33.308Z,3.00
2023-01-20T11:49:16.975Z,3.20
2023-01-20T11:51:53.233Z,3.20
2023-01-20T11:54:28.587Z,2.90
2023-01-20T11:57:06.512Z,3.10
2023-01-20T11:59:36.142Z,3.10
2023-01-20T12:02:23.310Z,3.20
2023-01-20T12:04:58.835Z,2.90
2023-01-20T12:07:32.056Z,2.40
2023-01-20T12:10:05.985Z,2.00
2023-01-20T12:13:07.929Z,1.90
2023-01-20T12:15:41.882Z,1.80
2023-01-20T12:18:15.919Z,1.70
2023-01-20T12:20:55.098Z,1.60
2023-01-20T12:23:58.691Z,1.60
2023-01-20T12:26:26.246Z,1.60
2023-01-20T12:29:44.772Z,1.60
2023-01-20T12:32:11.538Z,1.70
2023-01-20T12:34:38.699Z,1.90
2023-01-20T12:37:28.689Z,2.10
2023-01-20T12:40:08.592Z,2.30
2023-01-20T12:42:53.774Z,2.70
2023-01-20T12:45:45.261Z,2.90
2023-01-20T12:48:21.908Z,3.10
2023-01-20T12:51:23.741Z,3.10
2023-01-20T12:53:54.632Z,2.90
2023-01-20T12:56:55.364Z,2.70
2023-01-20T12:59:33.468Z,2.50
2023-01-20T13:02:12.807Z,2.40
2023-01-20T13:05:05.771Z,2.40
2023-01-20T13:07:41.392Z,2.60
2023-01-20T13:10:51.534Z,2.80
2023-01-20T13:14:03.423Z,2.90
2023-01-20T13:16:42.389Z,3.20
2023-01-20T13:19:17.024Z,3.40
2023-01-20T13:21:43.674Z,3.40
2023-01-20T13:24:24.200Z,3.40
2023-01-20T13:26:51.192Z,3.20
2023-01-20T13:29:42.783Z,3.00
2023-01-20T13:32:34.408Z,2.70
2023-01-20T13:35:23.086Z,2.60
2023-01-20T13:37:52.291Z,2.50
2023-01-20T13:40:33.907Z,2.50
2023-01-20T13:43:00.624Z,2.60
2023-01-20T13:45:27.794Z,2.60
2023-01-20T13:48:02.280Z,2.60
2023-01-20T13:50:43.271Z,2.60
2023-01-20T13:53:20.142Z,2.50
2023-01-20T13:55:49.587Z,2.50
2023-01-20T13:58:20.312Z,2.40
2023-01-20T14:00:49.744Z,2.40
2023-01-20T14:03:19.186Z,2.40
2023-01-20T14:05:50.104Z,2.40
2023-01-20T14:08:17.059Z,2.50
2023-01-20T14:10:43.680Z,2.50
2023-01-20T14:13:24.307Z,2.50
2023-01-20T14:15:54.295Z,2.50
2023-01-20T14:18:23.457Z,2.50
2023-01-20T14:21:17.367Z,2.50
2023-01-20T14:23:46.207Z,2.50
2023-01-20T14:26:19.940Z,2.50
2023-01-20T14:28:52.335Z,2.50
2023-01-20T14:31:22.683Z,2.50
2023-01-20T14:33:57.357Z,2.50
2023-01-20T14:36:25.901Z,2.60
2023-01-20T14:38:58.901Z,2.50
2023-01-20T14:41:46.800Z,2.40
2023-01-20T14:44:18.616Z,2.30
2023-01-20T14:46:46.032Z,2.20
2023-01-20T14:49:16.184Z,2.20
2023-01-20T14:51:43.523Z,2.10
2023-01-20T14:54:41.463Z,2.00
2023-01-20T15:00:19.070Z,1.80
2023-01-20T15:03:01.389Z,1.70
2023-01-20T15:05:37.365Z,1.70
2023-01-20T15:08:06.332Z,1.70
2023-01-20T15:10:33.008Z,1.70
2023-01-20T15:13:03.198Z,1.60
2023-01-20T15:15:32.204Z,1.50
2023-01-20T15:18:08.814Z,1.50
2023-01-20T15:20:38.902Z,1.40
2023-01-20T15:23:20.529Z,1.40
2023-01-20T15:25:51.583Z,1.40
2023-01-20T15:28:28.863Z,1.30
2023-01-20T15:30:57.925Z,1.30
2023-01-20T15:33:25.683Z,1.20
2023-01-20T15:35:59.753Z,1.10
2023-01-20T15:38:32.060Z,1.00
2023-01-20T15:40:58.612Z,0.80
2023-01-20T15:43:25.260Z,0.60
2023-01-20T15:45:51.860Z,0.40
2023-01-20T15:48:21.155Z,0.30
2023-01-20T15:50:48.683Z,0.20
2023-01-20T15:53:15.718Z,0.10
2023-01-20T15:55:51.780Z,0.00
2023-01-20T15:58:30.587Z,-0.10
2023-01-20T16:00:58.405Z,-0.10
2023-01-20T16:03:26.335Z,-0.10
2023-01-20T16:05:55.617Z,0.00
2023-01-20T16:08:35.380Z,0.00
2023-01-20T16:11:02.091Z,-0.10
2023-01-20T16:13:28.757Z,-0.20
2023-01-20T16:15:55.840Z,-0.40
2023-01-20T16:18:22.554Z,-0.60
2023-01-20T16:20:52.744Z,-0.70
2023-01-20T16:23:19.629Z,-0.80
2023-01-20T16:25:46.208Z,-1.00
2023-01-20T16:28:21.327Z,-1.10
2023-01-20T16:30:48.597Z,-1.20
2023-01-20T16:33:21.104Z,-1.20
2023-01-20T16:35:50.151Z,-1.30
2023-01-20T16:38:19.004Z,-1.40
2023-01-20T16:40:50.237Z,-1.50
2023-01-20T16:43:18.813Z,-1.50
2023-01-20T16:45:52.396Z,-1.60
2023-01-20T16:48:18.993Z,-1.70
2023-01-20T16:50:45.657Z,-1.70
2023-01-20T16:53:13.519Z,-1.60
2023-01-20T16:55:43.454Z,-1.70
2023-01-20T16:58:09.996Z,-1.60
2023-01-20T17:00:37.464Z,-1.70
2023-01-20T17:03:04.428Z,-1.80
2023-01-20T17:05:31.036Z,-1.80
2023-01-20T17:07:58.834Z,-1.80
2023-01-20T17:10:28.095Z,-1.80
2023-01-20T17:12:55.869Z,-1.80
2023-01-20T17:15:23.251Z,-1.90
2023-01-20T17:17:55.760Z,-1.90
2023-01-20T17:20:23.189Z,-1.80
2023-01-20T17:22:52.084Z,-1.90
2023-01-20T17:25:19.010Z,-1.90
2023-01-20T17:27:45.539Z,-1.90
2023-01-20T17:30:12.446Z,-1.90
2023-01-20T17:32:39.068Z,-1.90
2023-01-20T17:35:06.045Z,-1.90
2023-01-20T17:37:32.706Z,-1.80
2023-01-20T17:40:00.350Z,-1.80
2023-01-20T17:42:26.926Z,-1.90
2023-01-20T17:44:53.467Z,-1.90
2023-01-20T17:47:20.081Z,-1.80
2023-01-20T17:49:46.740Z,-1.90
2023-01-20T17:52:13.331Z,-2.00
2023-01-20T17:54:39.982Z,-2.10
2023-01-20T17:57:06.578Z,-2.10
2023-01-20T17:59:33.143Z,-2.00
2023-01-20T18:01:59.758Z,-2.10
2023-01-20T18:04:26.528Z,-2.10
